sensor_id;sensor_type;location;lat;lon;timestamp;pressure;altitude;pressure_sealevel;temperature;humidity
71145;BME280;58812;47.698;17.726;2023-04-24T00:00:12;99305.00;;;12.86;87.67
71145;BME280;58812;47.698;17.726;2023-04-24T00:02:41;99295.47;;;12.83;88.03
71145;BME280;58812;47.698;17.726;2023-04-24T00:05:10;99296.31;;;12.84;86.97
71145;BME280;58812;47.698;17.726;2023-04-24T00:07:35;99295.00;;;12.80;87.57
71145;BME280;58812;47.698;17.726;2023-04-24T00:10:01;99281.31;;;12.75;87.85
71145;BME280;58812;47.698;17.726;2023-04-24T00:12:26;99266.66;;;12.63;87.05
71145;BME280;58812;47.698;17.726;2023-04-24T00:14:52;99284.72;;;12.69;86.57
71145;BME280;58812;47.698;17.726;2023-04-24T00:17:18;99276.66;;;12.69;86.73
71145;BME280;58812;47.698;17.726;2023-04-24T00:19:47;99280.38;;;12.68;85.15
71145;BME280;58812;47.698;17.726;2023-04-24T00:22:13;99270.75;;;12.59;85.74
71145;BME280;58812;47.698;17.726;2023-04-24T00:24:39;99265.72;;;12.55;85.53
71145;BME280;58812;47.698;17.726;2023-04-24T00:27:05;99266.00;;;12.46;86.32
71145;BME280;58812;47.698;17.726;2023-04-24T00:29:30;99262.22;;;12.40;84.98
71145;BME280;58812;47.698;17.726;2023-04-24T00:31:56;99261.72;;;12.37;84.86
71145;BME280;58812;47.698;17.726;2023-04-24T00:34:21;99257.94;;;12.31;84.35
71145;BME280;58812;47.698;17.726;2023-04-24T00:36:47;99257.09;;;12.30;83.76
71145;BME280;58812;47.698;17.726;2023-04-24T00:39:15;99242.56;;;12.25;82.70
71145;BME280;58812;47.698;17.726;2023-04-24T00:41:41;99241.72;;;12.24;82.04
71145;BME280;58812;47.698;17.726;2023-04-24T00:44:06;99240.88;;;12.24;81.33
71145;BME280;58812;47.698;17.726;2023-04-24T00:46:32;99240.06;;;12.23;80.76
71145;BME280;58812;47.698;17.726;2023-04-24T00:48:59;99238.84;;;12.26;79.12
71145;BME280;58812;47.698;17.726;2023-04-24T00:51:24;99238.50;;;12.29;77.35
71145;BME280;58812;47.698;17.726;2023-04-24T00:53:50;99236.00;;;12.27;76.88
71145;BME280;58812;47.698;17.726;2023-04-24T00:56:16;99237.38;;;12.23;77.17
71145;BME280;58812;47.698;17.726;2023-04-24T00:58:42;99234.59;;;12.17;78.12
71145;BME280;58812;47.698;17.726;2023-04-24T01:01:09;99229.56;;;12.14;77.57
71145;BME280;58812;47.698;17.726;2023-04-24T01:03:35;99224.59;;;12.11;78.16
71145;BME280;58812;47.698;17.726;2023-04-24T01:06:02;99219.75;;;12.06;78.12
71145;BME280;58812;47.698;17.726;2023-04-24T01:08:29;99219.28;;;12.02;78.33
71145;BME280;58812;47.698;17.726;2023-04-24T01:10:55;99224.84;;;12.01;77.96
71145;BME280;58812;47.698;17.726;2023-04-24T01:13:22;99218.00;;;11.98;77.64
71145;BME280;58812;47.698;17.726;2023-04-24T01:15:47;99226.69;;;12.00;77.57
71145;BME280;58812;47.698;17.726;2023-04-24T01:18:13;99224.34;;;11.97;77.71
71145;BME280;58812;47.698;17.726;2023-04-24T01:20:42;99223.72;;;11.95;78.08
71145;BME280;58812;47.698;17.726;2023-04-24T01:23:09;99220.19;;;11.95;78.14
71145;BME280;58812;47.698;17.726;2023-04-24T01:25:36;99212.97;;;11.95;78.18
71145;BME280;58812;47.698;17.726;2023-04-24T01:28:02;99215.13;;;12.00;78.28
71145;BME280;58812;47.698;17.726;2023-04-24T01:30:28;99200.87;;;11.99;77.94
71145;BME280;58812;47.698;17.726;2023-04-24T01:32:53;99210.59;;;12.00;77.51
71145;BME280;58812;47.698;17.726;2023-04-24T01:35:20;99209.56;;;12.01;77.87
71145;BME280;58812;47.698;17.726;2023-04-24T01:37:45;99212.06;;;12.03;78.23
71145;BME280;58812;47.698;17.726;2023-04-24T01:40:11;99215.87;;;12.09;78.22
71145;BME280;58812;47.698;17.726;2023-04-24T01:42:37;99209.66;;;12.08;77.72
71145;BME280;58812;47.698;17.726;2023-04-24T01:45:04;99217.56;;;12.10;78.29
71145;BME280;58812;47.698;17.726;2023-04-24T01:47:31;99208.84;;;12.08;78.64
71145;BME280;58812;47.698;17.726;2023-04-24T01:49:57;99203.13;;;12.11;79.62
71145;BME280;58812;47.698;17.726;2023-04-24T01:52:23;99206.16;;;12.08;79.00
71145;BME280;58812;47.698;17.726;2023-04-24T01:54:48;99204.69;;;12.05;79.79
71145;BME280;58812;47.698;17.726;2023-04-24T01:57:14;99209.22;;;12.05;80.37
71145;BME280;58812;47.698;17.726;2023-04-24T01:59:40;99200.16;;;12.06;80.26
71145;BME280;58812;47.698;17.726;2023-04-24T02:02:05;99190.25;;;12.06;80.12
71145;BME280;58812;47.698;17.726;2023-04-24T02:04:31;99193.69;;;12.15;80.16
71145;BME280;58812;47.698;17.726;2023-04-24T02:06:56;99194.16;;;12.18;80.50
71145;BME280;58812;47.698;17.726;2023-04-24T02:09:22;99186.47;;;12.15;79.80
71145;BME280;58812;47.698;17.726;2023-04-24T02:11:47;99181.09;;;12.15;81.29
71145;BME280;58812;47.698;17.726;2023-04-24T02:14:13;99179.28;;;12.16;81.52
71145;BME280;58812;47.698;17.726;2023-04-24T02:16:38;99170.19;;;12.17;81.26
71145;BME280;58812;47.698;17.726;2023-04-24T02:19:04;99177.56;;;12.15;81.44
71145;BME280;58812;47.698;17.726;2023-04-24T02:21:29;99169.44;;;12.08;81.64
71145;BME280;58812;47.698;17.726;2023-04-24T02:23:56;99167.22;;;12.12;81.52
71145;BME280;58812;47.698;17.726;2023-04-24T02:26:21;99172.22;;;12.15;81.79
71145;BME280;58812;47.698;17.726;2023-04-24T02:28:47;99162.31;;;12.15;82.16
71145;BME280;58812;47.698;17.726;2023-04-24T02:31:12;99163.16;;;12.16;82.12
71145;BME280;58812;47.698;17.726;2023-04-24T02:33:38;99159.81;;;12.14;82.13
71145;BME280;58812;47.698;17.726;2023-04-24T02:36:03;99152.97;;;12.11;81.69
71145;BME280;58812;47.698;17.726;2023-04-24T02:38:29;99160.66;;;12.14;82.65
71145;BME280;58812;47.698;17.726;2023-04-24T02:40:55;99154.09;;;12.17;83.15
71145;BME280;58812;47.698;17.726;2023-04-24T02:43:20;99150.75;;;12.15;82.41
71145;BME280;58812;47.698;17.726;2023-04-24T02:45:46;99158.44;;;12.18;83.01
71145;BME280;58812;47.698;17.726;2023-04-24T02:48:11;99148.72;;;12.17;82.92
71145;BME280;58812;47.698;17.726;2023-04-24T02:50:37;99152.44;;;12.16;82.70
71145;BME280;58812;47.698;17.726;2023-04-24T02:53:03;99140.03;;;12.15;83.72
71145;BME280;58812;47.698;17.726;2023-04-24T02:55:28;99139.75;;;12.10;85.13
71145;BME280;58812;47.698;17.726;2023-04-24T02:57:54;99148.16;;;12.07;83.78
71145;BME280;58812;47.698;17.726;2023-04-24T03:00:19;99137.44;;;12.07;84.56
71145;BME280;58812;47.698;17.726;2023-04-24T03:02:45;99138.75;;;12.11;84.23
71145;BME280;58812;47.698;17.726;2023-04-24T03:05:10;99133.38;;;12.11;83.49
71145;BME280;58812;47.698;17.726;2023-04-24T03:07:37;99134.00;;;12.13;83.30
71145;BME280;58812;47.698;17.726;2023-04-24T03:10:03;99134.66;;;12.15;84.36
71145;BME280;58812;47.698;17.726;2023-04-24T03:12:30;99129.88;;;12.10;83.43
71145;BME280;58812;47.698;17.726;2023-04-24T03:14:55;99124.31;;;12.12;84.03
71145;BME280;58812;47.698;17.726;2023-04-24T03:17:21;99126.34;;;12.10;84.74
71145;BME280;58812;47.698;17.726;2023-04-24T03:19:46;99122.72;;;12.02;85.00
71145;BME280;58812;47.698;17.726;2023-04-24T03:22:12;99130.22;;;11.92;87.04
71145;BME280;58812;47.698;17.726;2023-04-24T03:24:37;99127.69;;;11.91;86.71
71145;BME280;58812;47.698;17.726;2023-04-24T03:27:03;99126.50;;;11.93;85.78
71145;BME280;58812;47.698;17.726;2023-04-24T03:29:28;99129.84;;;11.95;85.68
71145;BME280;58812;47.698;17.726;2023-04-24T03:31:53;99134.19;;;11.96;85.49
71145;BME280;58812;47.698;17.726;2023-04-24T03:34:19;99128.66;;;11.98;84.58
71145;BME280;58812;47.698;17.726;2023-04-24T03:36:44;99127.78;;;11.97;84.31
71145;BME280;58812;47.698;17.726;2023-04-24T03:39:12;99118.75;;;11.98;84.28
71145;BME280;58812;47.698;17.726;2023-04-24T03:41:38;99122.91;;;12.01;84.31
71145;BME280;58812;47.698;17.726;2023-04-24T03:44:03;99122.81;;;11.94;84.33
71145;BME280;58812;47.698;17.726;2023-04-24T03:46:29;99121.97;;;11.94;84.59
71145;BME280;58812;47.698;17.726;2023-04-24T03:48:54;99118.28;;;11.95;84.84
71145;BME280;58812;47.698;17.726;2023-04-24T03:51:20;99126.97;;;11.97;85.23
71145;BME280;58812;47.698;17.726;2023-04-24T03:53:46;99118.91;;;11.97;84.71
71145;BME280;58812;47.698;17.726;2023-04-24T03:56:11;99115.41;;;11.96;84.53
71145;BME280;58812;47.698;17.726;2023-04-24T03:58:37;99112.06;;;11.94;84.59
71145;BME280;58812;47.698;17.726;2023-04-24T04:01:02;99110.78;;;11.90;84.80
71145;BME280;58812;47.698;17.726;2023-04-24T04:03:28;99115.69;;;11.87;85.22
71145;BME280;58812;47.698;17.726;2023-04-24T04:05:53;99114.84;;;11.86;84.44
71145;BME280;58812;47.698;17.726;2023-04-24T04:08:19;99116.87;;;11.84;84.39
71145;BME280;58812;47.698;17.726;2023-04-24T04:10:45;99116.53;;;11.87;84.03
71145;BME280;58812;47.698;17.726;2023-04-24T04:13:10;99122.22;;;11.84;84.13
71145;BME280;58812;47.698;17.726;2023-04-24T04:15:36;99114.00;;;11.86;83.96
71145;BME280;58812;47.698;17.726;2023-04-24T04:18:01;99117.06;;;11.83;85.04
71145;BME280;58812;47.698;17.726;2023-04-24T04:20:27;99116.37;;;11.81;85.55
71145;BME280;58812;47.698;17.726;2023-04-24T04:22:52;99123.75;;;11.64;86.74
71145;BME280;58812;47.698;17.726;2023-04-24T04:25:17;99123.06;;;11.62;87.83
71145;BME280;58812;47.698;17.726;2023-04-24T04:27:45;99116.53;;;11.64;88.14
71145;BME280;58812;47.698;17.726;2023-04-24T04:30:13;99123.06;;;11.62;87.75
71145;BME280;58812;47.698;17.726;2023-04-24T04:32:38;99122.09;;;11.63;87.89
71145;BME280;58812;47.698;17.726;2023-04-24T04:35:04;99119.84;;;11.66;88.31
71145;BME280;58812;47.698;17.726;2023-04-24T04:37:30;99132.44;;;11.66;86.99
71145;BME280;58812;47.698;17.726;2023-04-24T04:39:57;99131.41;;;11.67;87.23
71145;BME280;58812;47.698;17.726;2023-04-24T04:42:24;99131.41;;;11.67;87.33
71145;BME280;58812;47.698;17.726;2023-04-24T04:44:49;99136.03;;;11.73;87.31
71145;BME280;58812;47.698;17.726;2023-04-24T04:47:16;99129.03;;;11.72;87.99
71145;BME280;58812;47.698;17.726;2023-04-24T04:49:42;99135.69;;;11.76;86.86
71145;BME280;58812;47.698;17.726;2023-04-24T04:52:08;99127.59;;;11.61;88.29
71145;BME280;58812;47.698;17.726;2023-04-24T04:54:34;99128.19;;;11.71;87.97
71145;BME280;58812;47.698;17.726;2023-04-24T04:56:59;99134.28;;;11.65;87.82
71145;BME280;58812;47.698;17.726;2023-04-24T04:59:26;99128.41;;;11.85;87.14
71145;BME280;58812;47.698;17.726;2023-04-24T05:01:52;99134.75;;;12.07;85.74
71145;BME280;58812;47.698;17.726;2023-04-24T05:04:17;99134.28;;;12.33;84.41
71145;BME280;58812;47.698;17.726;2023-04-24T05:06:43;99134.56;;;12.08;85.77
71145;BME280;58812;47.698;17.726;2023-04-24T05:09:08;99134.47;;;12.31;85.95
71145;BME280;58812;47.698;17.726;2023-04-24T05:11:34;99134.13;;;12.85;83.15
71145;BME280;58812;47.698;17.726;2023-04-24T05:14:00;99136.72;;;13.29;81.57
71145;BME280;58812;47.698;17.726;2023-04-24T05:16:26;99137.03;;;13.90;79.17
71145;BME280;58812;47.698;17.726;2023-04-24T05:18:51;99126.44;;;14.17;77.81
71145;BME280;58812;47.698;17.726;2023-04-24T05:21:16;99143.78;;;14.71;75.79
71145;BME280;58812;47.698;17.726;2023-04-24T05:23:42;99150.50;;;14.94;74.66
71145;BME280;58812;47.698;17.726;2023-04-24T05:26:07;99146.34;;;14.99;74.00
71145;BME280;58812;47.698;17.726;2023-04-24T05:28:33;99147.25;;;15.26;72.58
71145;BME280;58812;47.698;17.726;2023-04-24T05:30:59;99145.50;;;15.66;71.36
71145;BME280;58812;47.698;17.726;2023-04-24T05:33:25;99153.16;;;15.75;71.17
71145;BME280;58812;47.698;17.726;2023-04-24T05:35:50;99145.69;;;15.91;70.52
71145;BME280;58812;47.698;17.726;2023-04-24T05:38:16;99150.75;;;15.13;72.08
71145;BME280;58812;47.698;17.726;2023-04-24T05:40:45;99162.19;;;15.21;72.78
71145;BME280;58812;47.698;17.726;2023-04-24T05:43:11;99158.16;;;15.65;70.22
71145;BME280;58812;47.698;17.726;2023-04-24T05:45:37;99156.19;;;15.39;71.68
71145;BME280;58812;47.698;17.726;2023-04-24T05:48:03;99158.28;;;15.31;70.99
71145;BME280;58812;47.698;17.726;2023-04-24T05:50:28;99157.94;;;15.73;70.66
71145;BME280;58812;47.698;17.726;2023-04-24T05:52:54;99157.09;;;14.92;72.81
71145;BME280;58812;47.698;17.726;2023-04-24T05:55:20;99144.97;;;14.61;75.23
71145;BME280;58812;47.698;17.726;2023-04-24T05:57:45;99156.53;;;15.03;73.78
71145;BME280;58812;47.698;17.726;2023-04-24T06:00:11;99146.44;;;15.18;70.35
71145;BME280;58812;47.698;17.726;2023-04-24T06:02:38;99150.81;;;15.39;69.69
71145;BME280;58812;47.698;17.726;2023-04-24T06:05:04;99149.34;;;15.30;69.83
71145;BME280;58812;47.698;17.726;2023-04-24T06:07:30;99151.66;;;15.53;68.99
71145;BME280;58812;47.698;17.726;2023-04-24T06:09:56;99151.47;;;15.48;69.58
71145;BME280;58812;47.698;17.726;2023-04-24T06:12:22;99152.91;;;15.50;68.71
71145;BME280;58812;47.698;17.726;2023-04-24T06:14:47;99153.16;;;15.62;68.10
71145;BME280;58812;47.698;17.726;2023-04-24T06:17:13;99155.63;;;16.17;67.58
71145;BME280;58812;47.698;17.726;2023-04-24T06:19:38;99157.13;;;15.80;68.34
71145;BME280;58812;47.698;17.726;2023-04-24T06:22:04;99159.78;;;16.33;65.96
71145;BME280;58812;47.698;17.726;2023-04-24T06:24:29;99164.44;;;16.77;66.89
71145;BME280;58812;47.698;17.726;2023-04-24T06:26:55;99155.94;;;16.73;66.29
71145;BME280;58812;47.698;17.726;2023-04-24T06:29:21;99159.88;;;17.22;64.53
71145;BME280;58812;47.698;17.726;2023-04-24T06:31:47;99163.09;;;17.44;64.28
71145;BME280;58812;47.698;17.726;2023-04-24T06:34:12;99161.03;;;17.40;64.10
71145;BME280;58812;47.698;17.726;2023-04-24T06:36:38;99160.75;;;16.58;67.50
71145;BME280;58812;47.698;17.726;2023-04-24T06:39:03;99156.66;;;16.22;67.81
71145;BME280;58812;47.698;17.726;2023-04-24T06:41:29;99165.56;;;16.43;68.95
71145;BME280;58812;47.698;17.726;2023-04-24T06:43:55;99165.94;;;16.66;67.92
71145;BME280;58812;47.698;17.726;2023-04-24T06:46:21;99163.81;;;16.81;68.19
71145;BME280;58812;47.698;17.726;2023-04-24T06:48:49;99165.09;;;16.72;68.30
71145;BME280;58812;47.698;17.726;2023-04-24T06:51:15;99159.53;;;16.41;69.03
71145;BME280;58812;47.698;17.726;2023-04-24T06:53:42;99157.38;;;16.69;69.65
71145;BME280;58812;47.698;17.726;2023-04-24T06:56:08;99161.38;;;17.12;67.44
71145;BME280;58812;47.698;17.726;2023-04-24T06:58:33;99158.31;;;17.01;67.35
71145;BME280;58812;47.698;17.726;2023-04-24T07:00:59;99155.47;;;17.59;66.82
71145;BME280;58812;47.698;17.726;2023-04-24T07:03:24;99159.84;;;17.60;67.14
71145;BME280;58812;47.698;17.726;2023-04-24T07:05:49;99166.91;;;16.92;68.20
71145;BME280;58812;47.698;17.726;2023-04-24T07:08:16;99163.09;;;17.44;67.85
71145;BME280;58812;47.698;17.726;2023-04-24T07:10:43;99163.37;;;16.91;69.00
71145;BME280;58812;47.698;17.726;2023-04-24T07:13:09;99166.97;;;16.78;68.94
71145;BME280;58812;47.698;17.726;2023-04-24T07:15:34;99165.09;;;16.72;70.53
71145;BME280;58812;47.698;17.726;2023-04-24T07:18:00;99168.28;;;16.29;70.98
71145;BME280;58812;47.698;17.726;2023-04-24T07:20:25;99174.31;;;16.38;71.15
71145;BME280;58812;47.698;17.726;2023-04-24T07:22:51;99155.19;;;16.40;70.87
71145;BME280;58812;47.698;17.726;2023-04-24T07:25:19;99177.94;;;16.83;71.11
71145;BME280;58812;47.698;17.726;2023-04-24T07:27:44;99177.47;;;17.00;69.91
71145;BME280;58812;47.698;17.726;2023-04-24T07:30:10;99177.63;;;17.50;67.01
71145;BME280;58812;47.698;17.726;2023-04-24T07:32:36;99174.22;;;17.61;67.59
71145;BME280;58812;47.698;17.726;2023-04-24T07:35:02;99181.12;;;17.88;66.17
71145;BME280;58812;47.698;17.726;2023-04-24T07:37:28;99177.91;;;17.35;67.38
71145;BME280;58812;47.698;17.726;2023-04-24T07:39:54;99177.06;;;17.66;66.65
71145;BME280;58812;47.698;17.726;2023-04-24T07:42:20;99174.59;;;18.21;65.10
71145;BME280;58812;47.698;17.726;2023-04-24T07:44:45;99185.66;;;17.31;68.46
71145;BME280;58812;47.698;17.726;2023-04-24T07:47:13;99181.22;;;16.99;67.79
71145;BME280;58812;47.698;17.726;2023-04-24T07:49:41;99179.78;;;17.34;67.01
71145;BME280;58812;47.698;17.726;2023-04-24T07:52:07;99184.94;;;17.43;66.74
71145;BME280;58812;47.698;17.726;2023-04-24T07:54:32;99181.12;;;17.88;65.96
71145;BME280;58812;47.698;17.726;2023-04-24T07:56:58;99188.97;;;17.97;66.33
71145;BME280;58812;47.698;17.726;2023-04-24T07:59:23;99192.59;;;17.52;67.34
71145;BME280;58812;47.698;17.726;2023-04-24T08:01:49;99194.09;;;17.80;66.26
71145;BME280;58812;47.698;17.726;2023-04-24T08:04:14;99195.19;;;17.72;66.24
71145;BME280;58812;47.698;17.726;2023-04-24T08:06:40;99186.19;;;17.78;65.21
71145;BME280;58812;47.698;17.726;2023-04-24T08:09:05;99193.41;;;18.78;62.75
71145;BME280;58812;47.698;17.726;2023-04-24T08:11:31;99188.97;;;19.02;62.30
71145;BME280;58812;47.698;17.726;2023-04-24T08:13:57;99188.22;;;18.94;62.18
71145;BME280;58812;47.698;17.726;2023-04-24T08:16:22;99197.62;;;18.74;62.51
71145;BME280;58812;47.698;17.726;2023-04-24T08:18:49;99195.44;;;19.19;61.52
71145;BME280;58812;47.698;17.726;2023-04-24T08:21:15;99198.91;;;19.08;61.53
71145;BME280;58812;47.698;17.726;2023-04-24T08:23:44;99207.44;;;19.60;59.15
71145;BME280;58812;47.698;17.726;2023-04-24T08:26:09;99199.78;;;19.50;58.32
71145;BME280;58812;47.698;17.726;2023-04-24T08:28:36;99195.13;;;19.87;57.82
71145;BME280;58812;47.698;17.726;2023-04-24T08:31:02;99197.50;;;19.35;59.96
71145;BME280;58812;47.698;17.726;2023-04-24T08:33:27;99190.00;;;19.19;59.05
71145;BME280;58812;47.698;17.726;2023-04-24T08:35:57;99198.16;;;19.01;60.80
71145;BME280;58812;47.698;17.726;2023-04-24T08:38:23;99207.09;;;18.21;63.20
71145;BME280;58812;47.698;17.726;2023-04-24T08:40:49;99205.00;;;18.85;62.57
71145;BME280;58812;47.698;17.726;2023-04-24T08:43:15;99200.94;;;19.61;60.23
71145;BME280;58812;47.698;17.726;2023-04-24T08:45:41;99208.13;;;19.37;60.04
71145;BME280;58812;47.698;17.726;2023-04-24T08:48:07;99197.47;;;18.25;63.15
71145;BME280;58812;47.698;17.726;2023-04-24T08:50:32;99200.53;;;18.10;63.81
71145;BME280;58812;47.698;17.726;2023-04-24T08:53:01;99199.84;;;17.90;65.10
71145;BME280;58812;47.698;17.726;2023-04-24T08:55:26;99199.56;;;17.73;64.61
71145;BME280;58812;47.698;17.726;2023-04-24T08:57:53;99214.19;;;18.22;64.06
71145;BME280;58812;47.698;17.726;2023-04-24T09:00:22;99207.09;;;18.21;63.83
71145;BME280;58812;47.698;17.726;2023-04-24T09:02:49;99210.13;;;18.06;64.33
71145;BME280;58812;47.698;17.726;2023-04-24T09:05:17;99208.28;;;17.75;66.61
71145;BME280;58812;47.698;17.726;2023-04-24T09:07:45;99203.78;;;17.62;66.88
71145;BME280;58812;47.698;17.726;2023-04-24T09:10:12;99204.59;;;17.95;65.92
71145;BME280;58812;47.698;17.726;2023-04-24T09:12:38;99209.81;;;17.58;68.22
71145;BME280;58812;47.698;17.726;2023-04-24T09:15:03;99205.47;;;17.57;68.56
71145;BME280;58812;47.698;17.726;2023-04-24T09:17:30;99209.72;;;17.78;67.03
71145;BME280;58812;47.698;17.726;2023-04-24T09:19:56;99208.66;;;17.85;67.29
71145;BME280;58812;47.698;17.726;2023-04-24T09:22:21;99208.59;;;17.54;68.74
71145;BME280;58812;47.698;17.726;2023-04-24T09:24:47;99221.53;;;17.07;71.36
71145;BME280;58812;47.698;17.726;2023-04-24T09:27:13;99223.22;;;16.95;71.58
71145;BME280;58812;47.698;17.726;2023-04-24T09:29:53;99223.56;;;17.18;70.75
71145;BME280;58812;47.698;17.726;2023-04-24T09:32:21;99213.06;;;16.97;70.67
71145;BME280;58812;47.698;17.726;2023-04-24T09:34:47;99221.28;;;17.15;70.47
71145;BME280;58812;47.698;17.726;2023-04-24T09:37:27;99223.81;;;17.10;70.48
71145;BME280;58812;47.698;17.726;2023-04-24T09:40:19;99221.13;;;17.03;71.01
71145;BME280;58812;47.698;17.726;2023-04-24T09:42:52;99220.12;;;16.98;70.37
71145;BME280;58812;47.698;17.726;2023-04-24T09:45:18;99227.81;;;16.94;71.83
71145;BME280;58812;47.698;17.726;2023-04-24T09:47:43;99224.31;;;16.87;71.01
71145;BME280;58812;47.698;17.726;2023-04-24T09:50:16;99229.75;;;16.54;71.96
71145;BME280;58812;47.698;17.726;2023-04-24T09:52:46;99226.97;;;16.94;70.97
71145;BME280;58812;47.698;17.726;2023-04-24T09:55:19;99223.31;;;16.75;71.18
71145;BME280;58812;47.698;17.726;2023-04-24T09:57:54;99228.09;;;16.73;72.27
71145;BME280;58812;47.698;17.726;2023-04-24T10:00:33;99224.97;;;16.56;71.50
71145;BME280;58812;47.698;17.726;2023-04-24T10:03:03;99228.53;;;16.50;72.34
71145;BME280;58812;47.698;17.726;2023-04-24T10:05:31;99237.84;;;16.54;73.05
71145;BME280;58812;47.698;17.726;2023-04-24T10:08:05;99241.59;;;16.66;72.96
71145;BME280;58812;47.698;17.726;2023-04-24T10:10:32;99234.78;;;16.11;73.86
71145;BME280;58812;47.698;17.726;2023-04-24T10:12:59;99240.59;;;16.08;73.83
71145;BME280;58812;47.698;17.726;2023-04-24T10:15:25;99239.34;;;16.10;73.45
71145;BME280;58812;47.698;17.726;2023-04-24T10:17:51;99241.00;;;16.24;72.75
71145;BME280;58812;47.698;17.726;2023-04-24T10:20:22;99241.63;;;16.33;72.90
71145;BME280;58812;47.698;17.726;2023-04-24T10:22:49;99240.16;;;16.17;74.43
71145;BME280;58812;47.698;17.726;2023-04-24T10:25:37;99246.00;;;16.21;74.48
71145;BME280;58812;47.698;17.726;2023-04-24T10:28:03;99243.91;;;16.10;75.18
71145;BME280;58812;47.698;17.726;2023-04-24T10:30:30;99253.22;;;15.94;75.17
71145;BME280;58812;47.698;17.726;2023-04-24T10:33:00;99248.03;;;15.86;75.86
71145;BME280;58812;47.698;17.726;2023-04-24T10:35:26;99252.41;;;15.87;75.00
71145;BME280;58812;47.698;17.726;2023-04-24T10:37:58;99252.41;;;15.87;75.83
71145;BME280;58812;47.698;17.726;2023-04-24T10:40:31;99252.19;;;15.82;75.67
71145;BME280;58812;47.698;17.726;2023-04-24T10:42:57;99248.03;;;15.72;76.36
71145;BME280;58812;47.698;17.726;2023-04-24T10:45:24;99253.66;;;15.78;76.22
71145;BME280;58812;47.698;17.726;2023-04-24T10:48:03;99244.91;;;15.69;76.58
71145;BME280;58812;47.698;17.726;2023-04-24T10:50:44;99250.94;;;15.78;76.03
71145;BME280;58812;47.698;17.726;2023-04-24T10:53:21;99245.34;;;15.72;74.88
71145;BME280;58812;47.698;17.726;2023-04-24T10:56:12;99250.66;;;15.59;75.78
71145;BME280;58812;47.698;17.726;2023-04-24T10:58:43;99245.50;;;15.64;75.78
71145;BME280;58812;47.698;17.726;2023-04-24T11:01:32;99250.28;;;15.62;75.40
71145;BME280;58812;47.698;17.726;2023-04-24T11:04:02;99242.34;;;15.54;74.88
71145;BME280;58812;47.698;17.726;2023-04-24T11:06:35;99248.75;;;15.53;75.44
71145;BME280;58812;47.698;17.726;2023-04-24T11:09:06;99255.19;;;15.45;75.44
71145;BME280;58812;47.698;17.726;2023-04-24T11:11:32;99251.03;;;15.43;75.87
71145;BME280;58812;47.698;17.726;2023-04-24T11:16:30;99253.09;;;15.41;76.25
71145;BME280;58812;47.698;17.726;2023-04-24T11:19:07;99254.94;;;15.40;76.69
71145;BME280;58812;47.698;17.726;2023-04-24T11:24:23;99249.88;;;15.17;77.26
71145;BME280;58812;47.698;17.726;2023-04-24T11:27:38;99258.19;;;15.16;78.34
71145;BME280;58812;47.698;17.726;2023-04-24T11:32:30;99260.22;;;15.07;79.41
71145;BME280;58812;47.698;17.726;2023-04-24T11:37:26;99269.25;;;14.58;82.24
71145;BME280;58812;47.698;17.726;2023-04-24T11:39:57;99274.91;;;14.42;82.68
71145;BME280;58812;47.698;17.726;2023-04-24T11:42:23;99275.53;;;14.44;82.77
71145;BME280;58812;47.698;17.726;2023-04-24T11:44:49;99271.53;;;14.33;82.92
71145;BME280;58812;47.698;17.726;2023-04-24T11:47:16;99272.22;;;14.42;82.04
71145;BME280;58812;47.698;17.726;2023-04-24T11:49:42;99272.84;;;14.44;82.45
71145;BME280;58812;47.698;17.726;2023-04-24T11:52:07;99268.19;;;14.31;82.13
71145;BME280;58812;47.698;17.726;2023-04-24T11:54:33;99275.56;;;14.23;81.50
71145;BME280;58812;47.698;17.726;2023-04-24T11:56:59;99269.03;;;14.32;81.52
71145;BME280;58812;47.698;17.726;2023-04-24T11:59:24;99278.09;;;14.24;80.55
71145;BME280;58812;47.698;17.726;2023-04-24T12:01:50;99273.47;;;14.18;79.64
71145;BME280;58812;47.698;17.726;2023-04-24T12:04:17;99266.12;;;14.05;79.43
71145;BME280;58812;47.698;17.726;2023-04-24T12:07:02;99276.34;;;14.16;80.02
71145;BME280;58812;47.698;17.726;2023-04-24T12:09:28;99269.56;;;14.21;79.62
71145;BME280;58812;47.698;17.726;2023-04-24T12:11:55;99276.84;;;14.27;79.61
71145;BME280;58812;47.698;17.726;2023-04-24T12:14:22;99273.28;;;14.20;80.39
71145;BME280;58812;47.698;17.726;2023-04-24T12:16:49;99274.75;;;14.22;79.94
71145;BME280;58812;47.698;17.726;2023-04-24T12:19:21;99274.31;;;14.19;81.05
71145;BME280;58812;47.698;17.726;2023-04-24T12:22:05;99270.59;;;14.20;81.09
71145;BME280;58812;47.698;17.726;2023-04-24T12:24:31;99269.44;;;14.07;81.86
71145;BME280;58812;47.698;17.726;2023-04-24T12:26:57;99269.50;;;14.14;82.13
71145;BME280;58812;47.698;17.726;2023-04-24T12:29:24;99269.19;;;14.02;82.82
71145;BME280;58812;47.698;17.726;2023-04-24T12:31:51;99260.19;;;14.16;82.59
71145;BME280;58812;47.698;17.726;2023-04-24T12:34:18;99278.56;;;14.06;83.63
71145;BME280;58812;47.698;17.726;2023-04-24T12:36:43;99278.34;;;14.08;83.39
71145;BME280;58812;47.698;17.726;2023-04-24T12:39:15;99274.47;;;13.89;83.17
71145;BME280;58812;47.698;17.726;2023-04-24T12:41:50;99277.34;;;13.87;83.45
71145;BME280;58812;47.698;17.726;2023-04-24T12:44:16;99276.75;;;13.71;83.63
71145;BME280;58812;47.698;17.726;2023-04-24T12:46:41;99284.16;;;13.69;83.22
71145;BME280;58812;47.698;17.726;2023-04-24T12:49:07;99280.47;;;13.70;83.46
71145;BME280;58812;47.698;17.726;2023-04-24T12:51:32;99267.69;;;13.57;84.05
71145;BME280;58812;47.698;17.726;2023-04-24T12:53:58;99265.47;;;13.60;83.70
71145;BME280;58812;47.698;17.726;2023-04-24T12:56:23;99272.78;;;13.67;84.20
71145;BME280;58812;47.698;17.726;2023-04-24T12:58:49;99267.19;;;13.68;83.96